Time;durP1;ratioP1;P1;durP2;ratioP2;P2;SDS_P1;SDS_P2;PMS_P1;PMS_P2;Temp;Humidity;BMP_temperature;BMP_pressure;BME280_temperature;BME280_humidity;BME280_pressure;Samples;Min_cycle;Max_cycle;Signal;HPM_P1;HPM_P2
2023/02/10 00:01:26;;;;;;;7.85;3.35;;;;;;;-5.01;69.33;103749.31;5050310;28;20037;-80
2023/02/10 00:03:51;;;;;;;1.38;1.25;;;;;;;-4.89;69.43;103753.41;5067109;28;20127;-79
2023/02/10 00:06:17;;;;;;;1.95;1.77;;;;;;;-5.04;69.31;103726.38;5049752;28;20488;-80
2023/02/10 00:08:46;;;;;;;1.88;1.75;;;;;;;-4.81;69.10;103742.16;5049568;28;20056;-80
2023/02/10 00:11:12;;;;;;;2.95;2.47;;;;;;;-4.90;68.98;103742.44;5050252;28;20059;-80
2023/02/10 00:13:38;;;;;;;0.73;0.73;;;;;;;-4.85;69.36;103738.53;5066562;28;20496;-80
2023/02/10 00:16:04;;;;;;;2.67;1.73;;;;;;;-4.94;69.34;103728.72;5033521;28;20055;-80
2023/02/10 00:18:30;;;;;;;3.15;2.95;;;;;;;-4.89;69.09;103728.16;5066446;28;20506;-79
2023/02/10 00:20:56;;;;;;;2.78;2.08;;;;;;;-4.91;69.02;103723.00;5049999;28;20036;-79
2023/02/10 00:23:21;;;;;;;6.60;2.47;;;;;;;-4.93;69.23;103727.06;5050736;28;20024;-79
2023/02/10 00:25:47;;;;;;;3.95;3.05;;;;;;;-5.07;69.38;103708.53;5066364;28;20025;-79
2023/02/10 00:28:12;;;;;;;2.88;2.67;;;;;;;-5.13;69.69;103697.16;5066592;28;20039;-79
2023/02/10 00:30:38;;;;;;;2.13;1.90;;;;;;;-4.97;69.35;103710.84;5066499;28;20078;-79
2023/02/10 00:33:03;;;;;;;2.22;1.77;;;;;;;-4.89;69.27;103720.59;5066514;28;20116;-79
2023/02/10 00:35:29;;;;;;;2.63;2.40;;;;;;;-4.96;69.08;103702.50;5049545;28;20029;-80
2023/02/10 00:37:54;;;;;;;2.97;2.67;;;;;;;-4.93;69.25;103722.88;5049272;28;20487;-79
2023/02/10 00:40:20;;;;;;;2.45;2.28;;;;;;;-4.91;68.89;103706.22;5066382;28;20104;-80
2023/02/10 00:42:45;;;;;;;1.73;1.63;;;;;;;-4.92;69.27;103714.56;5033047;28;20043;-80
2023/02/10 00:45:11;;;;;;;2.38;2.17;;;;;;;-5.03;69.42;103704.53;5033048;28;20480;-79
2023/02/10 00:47:36;;;;;;;3.45;3.10;;;;;;;-4.96;69.14;103706.69;5066254;28;20029;-79
2023/02/10 00:50:02;;;;;;;3.33;3.00;;;;;;;-5.07;69.40;103706.00;5049400;28;20021;-80
2023/02/10 00:52:27;;;;;;;3.55;3.25;;;;;;;-5.13;68.84;103700.53;5065697;28;20032;-80
2023/02/10 00:54:52;;;;;;;1.67;1.48;;;;;;;-5.24;68.61;103691.41;5049334;28;20037;-79
2023/02/10 00:57:18;;;;;;;1.38;0.90;;;;;;;-5.16;68.35;103707.06;5066127;28;20033;-79
2023/02/10 00:59:43;;;;;;;2.42;2.20;;;;;;;-5.19;68.25;103702.69;5049352;28;20407;-79
2023/02/10 01:02:09;;;;;;;2.20;2.03;;;;;;;-5.25;68.31;103702.28;5065891;28;20029;-79
2023/02/10 01:04:34;;;;;;;8.13;3.20;;;;;;;-5.33;68.29;103690.81;5032820;28;20079;-79
2023/02/10 01:07:00;;;;;;;1.90;1.80;;;;;;;-5.46;68.52;103686.63;5065716;28;20514;-80
2023/02/10 01:09:25;;;;;;;5.78;2.63;;;;;;;-5.58;68.80;103691.75;5065874;28;20045;-80
2023/02/10 01:11:51;;;;;;;1.30;1.25;;;;;;;-5.68;68.65;103696.97;5049190;28;20029;-79
2023/02/10 01:14:16;;;;;;;3.25;2.60;;;;;;;-5.67;68.63;103703.75;5066010;28;20029;-79
2023/02/10 01:16:42;;;;;;;3.38;2.45;;;;;;;-5.86;68.94;103690.69;5066002;28;20032;-80
2023/02/10 01:19:07;;;;;;;2.80;2.60;;;;;;;-5.91;69.15;103681.97;5052620;28;20040;-80
2023/02/10 01:21:33;;;;;;;6.32;2.30;;;;;;;-5.96;69.58;103685.81;5052746;28;20115;-79
2023/02/10 01:23:58;;;;;;;2.45;2.25;;;;;;;-6.01;69.39;103682.09;5053224;28;20029;-80
2023/02/10 01:26:24;;;;;;;3.38;2.97;;;;;;;-6.04;70.04;103680.25;5053286;28;20068;-80
2023/02/10 01:28:49;;;;;;;3.13;2.90;;;;;;;-6.05;69.96;103683.56;5036577;28;20427;-81
2023/02/10 01:31:16;;;;;;;1.48;1.38;;;;;;;-6.10;70.29;103678.19;5069678;28;20033;-81
2023/02/10 01:33:42;;;;;;;1.65;1.55;;;;;;;-6.09;71.00;103679.09;5053468;28;20025;-80
2023/02/10 01:36:12;;;;;;;1.30;1.20;;;;;;;-6.01;71.05;103679.59;5052730;28;20022;-80
2023/02/10 01:38:38;;;;;;;2.72;2.00;;;;;;;-5.96;70.46;103679.13;5053148;28;20061;-81
2023/02/10 01:41:04;;;;;;;3.20;1.70;;;;;;;-5.88;70.69;103674.59;5069799;28;20522;-80
2023/02/10 01:43:29;;;;;;;3.17;1.50;;;;;;;-5.96;70.35;103665.66;5036256;28;20025;-80
2023/02/10 01:45:55;;;;;;;1.48;1.38;;;;;;;-5.99;70.51;103650.34;5069438;28;20510;-80
2023/02/10 01:48:20;;;;;;;1.35;1.17;;;;;;;-5.84;70.13;103663.91;5052942;28;20021;-81
2023/02/10 01:50:48;;;;;;;2.55;1.98;;;;;;;-5.91;69.80;103652.56;5035966;28;20025;-80
2023/02/10 01:53:13;;;;;;;4.38;2.75;;;;;;;-5.74;69.69;103666.28;5052839;28;20032;-81
2023/02/10 01:55:39;;;;;;;1.77;1.60;;;;;;;-5.74;69.14;103660.34;5052985;28;20021;-81
2023/02/10 01:58:06;;;;;;;2.05;1.83;;;;;;;-5.84;69.13;103652.19;5052793;28;20128;-80
2023/02/10 02:00:32;;;;;;;2.63;2.42;;;;;;;-5.93;69.34;103653.25;5069489;28;20029;-80
2023/02/10 02:02:57;;;;;;;4.05;2.03;;;;;;;-6.28;69.74;103608.94;5069330;28;20032;-80
2023/02/10 02:05:37;;;;;;;2.85;2.65;;;;;;;-6.09;69.92;103654.75;5052292;28;20720;-80
2023/02/10 02:08:38;;;;;;;1.42;1.33;;;;;;;-6.16;70.12;103629.91;5068973;28;20049;-80
2023/02/10 02:11:09;;;;;;;1.77;1.63;;;;;;;-6.05;69.73;103649.91;5051297;28;21011;-80
2023/02/10 02:14:02;;;;;;;6.65;3.03;;;;;;;-5.93;69.71;103663.34;5052418;28;20035;-81
2023/02/10 02:16:39;;;;;;;;;;;;;;;-6.17;70.23;103660.94;5054163;28;20029;-81
2023/02/10 02:19:41;;;;;;;3.15;2.10;;;;;;;-6.33;70.63;103654.72;5068730;28;20379;-80
2023/02/10 02:22:10;;;;;;;1.08;1.00;;;;;;;-6.39;70.72;103632.50;5053324;28;20056;-80
2023/02/10 02:24:48;;;;;;;4.35;2.72;;;;;;;-6.51;70.74;103619.06;5053551;28;20048;-81
2023/02/10 02:27:25;;;;;;;1.55;1.35;;;;;;;-6.27;70.74;103643.44;5068777;28;20129;-81
2023/02/10 02:30:01;;;;;;;2.10;1.17;;;;;;;-6.49;70.63;103615.91;5068103;28;20037;-80
2023/02/10 02:32:28;;;;;;;3.70;2.60;;;;;;;-6.23;70.05;103650.41;5068505;28;20033;-80
2023/02/10 02:34:59;;;;;;;3.38;3.08;;;;;;;-6.27;70.16;103638.41;5051519;28;20466;-81
2023/02/10 02:37:33;;;;;;;2.55;2.35;;;;;;;-6.17;69.98;103639.91;5035387;28;20510;-80
2023/02/10 02:39:58;;;;;;;2.63;2.30;;;;;;;-6.22;69.70;103634.53;5035431;28;20025;-80
2023/02/10 02:42:28;;;;;;;1.98;1.83;;;;;;;-6.42;69.77;103592.00;5052005;28;20518;-81
2023/02/10 02:45:00;;;;;;;0.50;0.50;;;;;;;-6.18;69.35;103608.78;5051473;28;20033;-80
2023/02/10 02:48:03;;;;;;;1.92;1.77;;;;;;;-6.07;69.03;103627.13;5067699;28;20550;-80
2023/02/10 02:50:36;;;;;;;7.38;1.77;;;;;;;-6.25;69.19;103615.81;5051724;28;20037;-80
2023/02/10 02:53:21;;;;;;;1.70;1.55;;;;;;;-6.11;69.30;103630.19;5068357;28;20025;-80
2023/02/10 02:55:52;;;;;;;1.58;1.33;;;;;;;-6.08;69.12;103638.88;5067949;28;20094;-80
2023/02/10 02:58:35;;;;;;;3.65;2.45;;;;;;;-6.24;69.59;103626.00;5068367;28;20037;-80
2023/02/10 03:01:05;;;;;;;2.28;1.98;;;;;;;-6.28;69.41;103616.50;5051568;28;20094;-80
2023/02/10 03:03:34;;;;;;;2.15;1.73;;;;;;;-6.15;69.35;103634.19;5067710;28;20037;-81
2023/02/10 03:06:00;;;;;;;3.72;2.28;;;;;;;-6.19;69.39;103632.22;5068274;28;20029;-80
2023/02/10 03:08:26;;;;;;;1.75;1.63;;;;;;;-6.22;69.26;103634.53;5034480;28;20194;-81
2023/02/10 03:10:52;;;;;;;1.10;1.05;;;;;;;-6.37;69.18;103605.78;5051265;28;20033;-80
2023/02/10 03:13:18;;;;;;;2.80;1.88;;;;;;;-6.31;69.17;103626.34;5051379;28;20017;-81
2023/02/10 03:15:43;;;;;;;2.97;2.67;;;;;;;-6.53;69.22;103587.88;5068323;28;20064;-81
2023/02/10 03:18:09;;;;;;;5.70;4.00;;;;;;;-6.23;69.45;103640.34;5052228;28;20495;-81
2023/02/10 03:20:34;;;;;;;4.18;3.80;;;;;;;-6.35;69.19;103629.44;5051289;28;20078;-81
2023/02/10 03:23:00;;;;;;;2.10;1.88;;;;;;;-6.26;69.02;103640.13;5051121;28;20029;-80
2023/02/10 03:25:25;;;;;;;1.52;1.42;;;;;;;-6.41;69.00;103632.41;5067611;28;20033;-81
2023/02/10 03:27:51;;;;;;;3.30;2.92;;;;;;;-6.37;68.75;103639.41;5034367;28;20033;-80
2023/02/10 03:30:16;;;;;;;3.13;2.33;;;;;;;-6.49;68.82;103622.56;5034419;28;20514;-80
2023/02/10 03:32:41;;;;;;;2.10;1.48;;;;;;;-6.49;68.47;103633.53;5050657;28;20086;-81
2023/02/10 03:35:07;;;;;;;4.60;3.08;;;;;;;-6.56;68.48;103635.53;5034388;28;20041;-80
2023/02/10 03:37:33;;;;;;;5.18;3.47;;;;;;;-6.49;68.31;103635.16;5067285;28;20029;-80
2023/02/10 03:39:58;;;;;;;1.58;1.48;;;;;;;-6.63;68.15;103613.22;5066407;28;20106;-80
2023/02/10 03:42:24;;;;;;;1.75;1.63;;;;;;;-6.51;67.88;103622.47;5050713;28;20028;-80
2023/02/10 03:44:49;;;;;;;2.78;2.53;;;;;;;-6.65;68.13;103619.00;5067421;28;20032;-80
2023/02/10 03:47:14;;;;;;;2.83;2.20;;;;;;;-6.74;68.09;103594.84;5051206;28;20041;-80
2023/02/10 03:49:40;;;;;;;3.00;2.72;;;;;;;-6.49;68.05;103615.91;5067339;28;20025;-80
2023/02/10 03:52:05;;;;;;;6.32;1.90;;;;;;;-6.57;68.14;103616.16;5067009;28;20086;-80
2023/02/10 03:54:31;;;;;;;1.20;1.00;;;;;;;-6.60;68.25;103624.34;5033806;28;20507;-81
2023/02/10 03:56:56;;;;;;;3.05;2.67;;;;;;;-6.83;68.51;103597.59;5067157;28;20025;-81
2023/02/10 03:59:22;;;;;;;4.13;2.78;;;;;;;-6.56;67.80;103611.22;5067007;28;20423;-80
2023/02/10 04:01:47;;;;;;;2.22;2.08;;;;;;;-6.66;68.18;103607.19;5033459;28;20098;-80
2023/02/10 04:04:13;;;;;;;1.60;1.50;;;;;;;-6.68;68.17;103605.34;5067039;28;20037;-80
2023/02/10 04:06:38;;;;;;;3.50;3.20;;;;;;;-7.01;68.79;103583.72;5066743;28;20040;-79
2023/02/10 04:09:04;;;;;;;3.67;3.10;;;;;;;-6.77;70.42;103609.75;5051663;28;20052;-78
2023/02/10 04:11:29;;;;;;;1.92;1.83;;;;;;;-6.67;68.48;103605.44;5050383;28;20028;-79
2023/02/10 04:13:55;;;;;;;5.90;3.47;;;;;;;-6.55;67.93;103607.06;5066571;28;20029;-79
2023/02/10 04:16:23;;;;;;;4.28;2.65;;;;;;;-6.67;67.47;103575.22;5066182;28;20033;-80
2023/02/10 04:18:49;;;;;;;3.13;2.92;;;;;;;-6.60;67.24;103585.69;5050038;28;20473;-80
2023/02/10 04:21:14;;;;;;;1.80;1.70;;;;;;;-6.47;67.27;103609.34;5066627;28;20029;-80
2023/02/10 04:23:40;;;;;;;5.05;3.50;;;;;;;-6.54;66.92;103597.09;5044656;28;20486;-81
2023/02/10 04:26:06;;;;;;;3.17;2.60;;;;;;;-6.48;66.88;103617.66;5070287;28;20029;-80
2023/02/10 04:28:31;;;;;;;2.92;2.72;;;;;;;-6.49;67.17;103615.00;5069790;28;20037;-83
2023/02/10 04:30:58;;;;;;;4.50;3.15;;;;;;;-6.62;67.34;103603.22;5069150;28;20066;-83
2023/02/10 04:33:26;;;;;;;3.28;2.55;;;;;;;-6.60;67.26;103615.94;5069270;28;20033;-80
2023/02/10 04:35:52;;;;;;;2.30;1.95;;;;;;;-6.62;67.63;103612.44;5069668;28;20028;-80
2023/02/10 04:38:18;;;;;;;3.33;2.85;;;;;;;-6.48;69.10;103626.88;5052781;28;20041;-80
2023/02/10 04:40:44;;;;;;;2.90;2.70;;;;;;;-6.54;67.73;103631.47;5069204;28;20045;-81
2023/02/10 04:43:11;;;;;;;3.63;3.15;;;;;;;-6.61;67.61;103640.22;5069194;28;20040;-80
2023/02/10 04:45:36;;;;;;;6.32;2.70;;;;;;;-6.70;68.01;103648.03;5069238;28;20025;-80
2023/02/10 04:48:02;;;;;;;3.55;3.25;;;;;;;-6.75;68.39;103643.44;5069480;28;20502;-80
2023/02/10 04:50:27;;;;;;;4.90;4.43;;;;;;;-6.75;68.52;103645.97;5069540;28;20070;-81
2023/02/10 04:52:53;;;;;;;10.20;6.32;;;;;;;-6.76;68.41;103651.78;5069626;28;20502;-81
2023/02/10 04:55:18;;;;;;;3.55;3.15;;;;;;;-6.88;68.38;103644.25;5068757;28;20028;-82
2023/02/10 04:57:44;;;;;;;4.20;3.42;;;;;;;-6.83;68.90;103645.44;5069360;28;20028;-82
2023/02/10 05:00:10;;;;;;;5.03;4.57;;;;;;;-6.83;68.47;103659.66;5085728;28;20131;-81
2023/02/10 05:02:36;;;;;;;6.45;4.35;;;;;;;-6.84;68.49;103655.38;5069505;28;20032;-82
2023/02/10 05:05:02;;;;;;;21.23;6.03;;;;;;;-6.81;68.72;103660.63;5067221;28;20028;-82
2023/02/10 05:07:27;;;;;;;6.95;4.60;;;;;;;-6.86;69.56;103660.31;5084416;28;20082;-82
2023/02/10 05:09:53;;;;;;;5.75;4.97;;;;;;;-6.83;69.11;103668.06;5069239;28;20036;-80
2023/02/10 05:12:18;;;;;;;5.63;4.60;;;;;;;-6.87;69.72;103660.22;5052485;28;20059;-85
2023/02/10 05:14:44;;;;;;;3.40;2.92;;;;;;;-6.79;69.89;103664.13;5050489;28;20491;-83
2023/02/10 05:17:09;;;;;;;6.10;4.22;;;;;;;-6.79;69.50;103647.38;5052260;28;20037;-83
2023/02/10 05:19:35;;;;;;;4.68;4.22;;;;;;;-6.67;68.06;103663.38;5069055;28;20025;-83
2023/02/10 05:22:00;;;;;;;5.88;4.57;;;;;;;-6.95;68.45;103642.06;5067354;28;20586;-86
2023/02/10 05:24:26;;;;;;;10.45;6.82;;;;;;;-6.95;69.37;103673.13;5038961;28;20055;-88
2023/02/10 05:26:51;;;;;;;2.65;2.45;;;;;;;-6.92;69.81;103680.00;5085705;28;20545;-91
2023/02/10 05:29:17;;;;;;;10.52;6.32;;;;;;;-7.09;71.42;103663.69;5068833;28;20029;-85
2023/02/10 05:31:42;;;;;;;6.38;4.57;;;;;;;-6.98;71.74;103666.97;5080520;28;20056;-82
2023/02/10 05:34:08;;;;;;;4.53;3.35;;;;;;;-6.93;72.68;103680.78;5068458;28;20388;-83
2023/02/10 05:36:33;;;;;;;6.43;4.85;;;;;;;-6.90;74.06;103670.03;5051873;28;20035;-89
2023/02/10 05:41:42;;;;;;;4.90;3.75;;;;;;;-6.89;76.13;103669.28;5054483;28;20537;-86
2023/02/10 05:44:08;;;;;;;8.80;6.97;;;;;;;-6.89;76.70;103666.75;5070765;28;20036;-88
2023/02/10 05:46:33;;;;;;;10.20;6.75;;;;;;;-6.88;77.81;103679.47;5052671;28;20032;-83
2023/02/10 05:48:59;;;;;;;13.90;11.45;;;;;;;-7.11;78.89;103654.31;5051838;28;20024;-83
2023/02/10 05:51:24;;;;;;;13.95;8.02;;;;;;;-6.80;79.42;103683.38;5068605;28;20033;-83
2023/02/10 05:53:50;;;;;;;12.77;9.25;;;;;;;-6.84;79.70;103691.50;5053457;28;20064;-82
2023/02/10 05:56:15;;;;;;;11.95;9.15;;;;;;;-6.81;80.12;103688.31;5072675;28;20453;-86
2023/02/10 05:58:41;;;;;;;10.90;6.97;;;;;;;-6.80;80.36;103693.47;5067526;28;20024;-82
2023/02/10 06:01:07;;;;;;;9.05;6.65;;;;;;;-6.77;81.12;103693.69;5087588;28;20469;-86
2023/02/10 06:03:33;;;;;;;7.07;4.95;;;;;;;-6.70;80.46;103708.44;5084995;28;20123;-86
2023/02/10 06:05:59;;;;;;;7.38;5.93;;;;;;;-6.76;80.69;103690.41;5053752;28;20115;-84
2023/02/10 06:08:24;;;;;;;4.32;3.67;;;;;;;-6.63;81.05;103692.13;5071376;28;20055;-89
2023/02/10 06:10:50;;;;;;;4.10;3.75;;;;;;;-6.50;80.16;103702.28;5071977;28;20081;-91
2023/02/10 06:13:15;;;;;;;7.90;5.32;;;;;;;-6.65;79.69;103694.56;5071724;28;20039;-87
2023/02/10 06:15:41;;;;;;;6.88;5.13;;;;;;;-6.47;79.73;103719.28;5077050;28;20037;-87
2023/02/10 06:18:06;;;;;;;7.43;5.40;;;;;;;-6.47;79.10;103720.16;5039319;28;20480;-89
2023/02/10 06:20:32;;;;;;;3.47;3.17;;;;;;;-6.32;79.32;103717.81;5072393;28;20494;-84
2023/02/10 06:22:57;;;;;;;5.25;4.80;;;;;;;-6.40;78.39;103693.72;5052092;28;20032;-82
2023/02/10 06:25:22;;;;;;;6.82;5.07;;;;;;;-6.38;77.88;103690.56;5071906;28;20040;-83
2023/02/10 06:27:48;;;;;;;6.20;3.38;;;;;;;-6.41;78.25;103690.34;5080187;28;20104;-86
2023/02/10 06:30:13;;;;;;;3.28;2.55;;;;;;;-6.08;77.89;103727.09;5083224;28;20024;-89
2023/02/10 06:32:39;;;;;;;7.38;4.95;;;;;;;-6.04;77.56;103718.06;5072177;28;20032;-87
2023/02/10 06:35:04;;;;;;;3.72;3.35;;;;;;;-6.11;77.23;103711.72;5056938;28;20387;-86
2023/02/10 06:37:30;;;;;;;4.28;3.50;;;;;;;-6.05;76.21;103706.25;5106371;28;20107;-86
2023/02/10 06:39:56;;;;;;;8.32;6.10;;;;;;;-5.98;76.13;103715.97;5086276;28;20029;-88
2023/02/10 06:42:21;;;;;;;7.95;6.90;;;;;;;-5.90;75.94;103726.56;5071195;28;20054;-88
2023/02/10 06:44:46;;;;;;;6.63;5.20;;;;;;;-6.01;74.72;103712.34;5054534;28;20056;-87
2023/02/10 06:47:12;;;;;;;10.75;5.65;;;;;;;-5.90;74.13;103736.66;5087532;28;20062;-90
2023/02/10 06:49:37;;;;;;;5.40;4.55;;;;;;;-5.79;73.67;103739.13;5071124;28;20028;-85
2023/02/10 06:52:03;;;;;;;12.07;8.50;;;;;;;-5.74;72.36;103734.38;5071218;28;20051;-79
2023/02/10 06:54:29;;;;;;;6.22;5.72;;;;;;;-5.83;72.58;103728.69;5068115;28;20050;-87
2023/02/10 06:56:54;;;;;;;11.95;9.07;;;;;;;-5.79;71.56;103730.69;5068020;28;20065;-76
2023/02/10 06:59:20;;;;;;;2.88;2.70;;;;;;;-5.81;71.76;103742.28;5090589;28;20477;-79
2023/02/10 07:01:46;;;;;;;15.15;7.80;;;;;;;-5.99;71.97;103725.97;5077076;28;20481;-79
2023/02/10 07:04:11;;;;;;;11.60;7.93;;;;;;;-6.08;72.58;103741.34;5107868;28;20107;-82
2023/02/10 07:06:37;;;;;;;10.32;7.20;;;;;;;-6.11;73.16;103725.97;5087742;28;20028;-81
2023/02/10 07:09:03;;;;;;;7.82;6.43;;;;;;;-5.94;72.33;103735.56;5073647;28;20541;-84
2023/02/10 07:11:30;;;;;;;11.13;9.10;;;;;;;-5.84;71.81;103742.09;5073556;28;20491;-88
2023/02/10 07:13:56;;;;;;;19.38;11.95;;;;;;;-5.86;71.88;103749.53;5077781;28;20032;-79
2023/02/10 07:16:22;;;;;;;12.93;10.85;;;;;;;-5.85;72.67;103736.16;5100206;28;20606;-78
2023/02/10 07:18:47;;;;;;;9.52;7.40;;;;;;;-5.73;72.43;103738.63;5091107;28;20039;-92
2023/02/10 07:21:13;;;;;;;10.98;8.40;;;;;;;-5.71;71.79;103719.44;5067957;28;20032;-84
2023/02/10 07:23:38;;;;;;;8.43;6.78;;;;;;;-5.59;71.38;103740.44;5042049;28;20055;-89
2023/02/10 07:26:04;;;;;;;13.07;9.63;;;;;;;-5.51;71.04;103745.97;5056927;28;20465;-87
2023/02/10 07:28:30;;;;;;;6.88;5.63;;;;;;;-5.57;71.08;103738.91;5060552;28;20043;-81
2023/02/10 07:30:55;;;;;;;10.10;9.02;;;;;;;-5.53;71.18;103735.78;5069774;28;20520;-80
2023/02/10 07:33:21;;;;;;;14.75;8.25;;;;;;;-5.38;71.27;103752.75;5088279;28;20024;-83
2023/02/10 07:35:46;;;;;;;25.67;10.52;;;;;;;-5.41;71.09;103733.19;5054516;28;20039;-81
2023/02/10 07:38:12;;;;;;;9.07;6.70;;;;;;;-5.36;71.81;103744.50;5069400;28;20044;-87
2023/02/10 07:40:37;;;;;;;6.82;6.22;;;;;;;-5.13;71.39;103748.50;5098455;28;20407;-84
2023/02/10 07:43:03;;;;;;;12.45;7.22;;;;;;;-5.01;70.88;103745.94;5090366;28;20081;-84
2023/02/10 07:45:30;;;;;;;15.70;9.30;;;;;;;-5.15;71.50;103721.41;5090075;28;20500;-79
2023/02/10 07:47:57;;;;;;;14.73;8.07;;;;;;;-4.93;71.03;103727.06;5090204;28;20023;-84
2023/02/10 07:50:23;;;;;;;10.55;8.02;;;;;;;-4.77;71.02;103733.97;5053559;28;20044;-85
2023/02/10 07:52:48;;;;;;;16.60;10.45;;;;;;;-4.82;70.79;103728.63;5043196;28;20060;-82
2023/02/10 07:55:14;;;;;;;5.35;4.95;;;;;;;-4.74;70.79;103716.47;5069534;28;20025;-80
2023/02/10 07:57:39;;;;;;;9.52;5.75;;;;;;;-4.62;71.33;103707.16;5069206;28;20028;-80
2023/02/10 08:00:07;;;;;;;8.00;4.53;;;;;;;-4.34;70.55;103723.22;5076243;28;20111;-81
2023/02/10 08:02:32;;;;;;;7.90;6.18;;;;;;;-4.42;69.92;103694.13;5072379;28;20415;-81
2023/02/10 08:04:58;;;;;;;6.00;5.40;;;;;;;-4.17;69.66;103720.88;5089624;28;20505;-79
2023/02/10 08:07:24;;;;;;;8.07;6.15;;;;;;;-4.08;69.19;103706.25;5068173;28;20502;-86
2023/02/10 08:09:49;;;;;;;4.38;4.05;;;;;;;-3.88;68.85;103713.38;5052151;28;20020;-79
2023/02/10 08:12:15;;;;;;;7.20;6.55;;;;;;;-3.88;68.71;103715.91;5067918;28;20553;-80
2023/02/10 08:14:40;;;;;;;5.15;4.35;;;;;;;-3.82;68.90;103721.34;5080844;28;20031;-79
2023/02/10 08:17:06;;;;;;;6.15;3.78;;;;;;;-3.71;68.26;103716.06;5085977;28;20032;-84
2023/02/10 08:19:31;;;;;;;6.43;5.00;;;;;;;-3.80;67.90;103709.66;5084260;28;20055;-82
2023/02/10 08:21:57;;;;;;;4.50;4.05;;;;;;;-3.62;68.02;103716.59;5074951;28;20024;-90
2023/02/10 08:24:22;;;;;;;3.70;3.33;;;;;;;-3.62;67.67;103703.94;5070246;28;20048;-82
2023/02/10 08:26:48;;;;;;;5.68;5.15;;;;;;;-3.71;68.01;103698.34;5086003;28;20051;-83
2023/02/10 08:29:13;;;;;;;7.43;5.70;;;;;;;-3.55;68.36;103717.00;5084555;28;20037;-80
2023/02/10 08:31:39;;;;;;;12.70;4.90;;;;;;;-3.50;68.47;103694.50;5069171;28;20060;-92
2023/02/10 08:34:05;;;;;;;6.15;4.07;;;;;;;-3.51;67.84;103682.66;5069062;28;20043;-84
2023/02/10 08:36:30;;;;;;;5.07;3.33;;;;;;;-3.25;67.22;103700.19;5068855;28;20028;-89
2023/02/10 08:38:56;;;;;;;4.70;3.97;;;;;;;-3.15;66.66;103715.91;5051898;28;20020;-82
2023/02/10 08:41:22;;;;;;;4.65;2.85;;;;;;;-3.23;67.04;103706.22;5068588;28;20043;-81
2023/02/10 08:43:47;;;;;;;6.28;4.82;;;;;;;-3.09;66.66;103713.72;5068646;28;20025;-82
2023/02/10 08:46:13;;;;;;;4.68;3.55;;;;;;;-3.19;66.29;103698.00;5068928;28;20036;-81
2023/02/10 08:48:38;;;;;;;4.43;3.33;;;;;;;-2.83;66.46;103713.53;5069115;28;20047;-89
2023/02/10 08:51:08;;;;;;;6.68;5.78;;;;;;;-2.69;65.71;103699.94;5083424;28;20028;-91
2023/02/10 08:53:34;;;;;;;2.28;2.08;;;;;;;-2.46;65.26;103700.28;5049270;28;20053;-87
2023/02/10 08:56:01;;;;;;;13.68;5.40;;;;;;;-2.50;65.08;103686.59;5074160;28;20054;-88
2023/02/10 08:58:27;;;;;;;5.63;4.35;;;;;;;-2.40;65.33;103666.00;5072135;28;20033;-86
2023/02/10 09:00:52;;;;;;;5.72;5.30;;;;;;;-2.29;64.75;103689.41;5081807;28;20078;-85
2023/02/10 09:03:18;;;;;;;6.63;5.95;;;;;;;-2.13;64.31;103688.53;5087794;28;20028;-90
2023/02/10 09:05:45;;;;;;;6.65;5.97;;;;;;;-1.94;64.07;103695.44;5085903;28;20054;-81
2023/02/10 09:08:14;;;;;;;9.13;7.53;;;;;;;-1.85;65.69;103703.53;5080869;28;20139;-82
2023/02/10 09:10:40;;;;;;;9.13;6.68;;;;;;;-1.72;64.91;103690.66;5084569;28;20029;-89
2023/02/10 09:13:08;;;;;;;9.60;7.13;;;;;;;-1.69;64.58;103692.47;5068191;28;20051;-81
2023/02/10 09:15:36;;;;;;;13.45;7.28;;;;;;;-1.63;64.13;103696.19;5067793;28;20074;-80
2023/02/10 09:18:01;;;;;;;14.30;7.25;;;;;;;-1.58;64.71;103699.81;5073320;28;20029;-82
2023/02/10 09:20:27;;;;;;;6.35;5.78;;;;;;;-1.47;64.83;103702.94;5061015;28;20081;-87
2023/02/10 09:22:52;;;;;;;6.30;4.88;;;;;;;-1.45;64.60;103694.59;5071848;28;20033;-86
2023/02/10 09:25:18;;;;;;;12.38;7.10;;;;;;;-1.33;64.96;103690.91;5048092;28;20044;-88
2023/02/10 09:27:43;;;;;;;8.60;7.40;;;;;;;-1.26;63.81;103683.66;5081310;28;20534;-87
2023/02/10 09:30:09;;;;;;;7.40;6.68;;;;;;;-1.10;63.65;103700.50;5068752;28;20047;-88
2023/02/10 09:32:34;;;;;;;8.18;6.55;;;;;;;-1.34;63.19;103668.84;5079383;28;20020;-81
2023/02/10 09:35:00;;;;;;;9.40;7.45;;;;;;;-1.04;63.25;103695.72;5095263;28;20032;-91
2023/02/10 09:37:25;;;;;;;11.68;7.28;;;;;;;-1.06;63.15;103687.16;5069622;28;20085;-87
2023/02/10 09:39:51;;;;;;;9.27;7.07;;;;;;;-1.18;63.84;103679.81;5086469;28;20036;-87
2023/02/10 09:42:28;;;;;;;10.57;6.35;;;;;;;-1.30;64.21;103670.72;5055218;28;20025;-83
2023/02/10 09:44:56;;;;;;;6.65;5.60;;;;;;;-1.18;64.24;103677.28;5089315;28;20483;-88
2023/02/10 09:47:50;;;;;;;4.72;4.28;;;;;;;-1.06;62.99;103660.88;5072291;28;20028;-81
2023/02/10 09:50:21;;;;;;;7.68;5.07;;;;;;;-0.97;62.84;103668.94;5068214;28;20078;-82
2023/02/10 09:52:53;;;;;;;6.45;4.47;;;;;;;-0.98;63.45;103685.84;5088066;28;20032;-83
2023/02/10 09:55:23;;;;;;;7.35;4.43;;;;;;;-1.00;63.98;103668.78;5091326;28;20047;-86
2023/02/10 09:57:51;;;;;;;13.75;6.13;;;;;;;-0.91;65.18;103675.16;5088887;28;20029;-84
2023/02/10 10:00:19;;;;;;;11.38;7.50;;;;;;;-0.87;64.16;103664.34;5080343;28;20055;-83
2023/02/10 10:02:49;;;;;;;7.57;6.18;;;;;;;-0.92;63.47;103627.66;5093735;28;20020;-80
2023/02/10 10:05:38;;;;;;;7.25;5.53;;;;;;;-0.63;64.13;103671.34;5090018;28;20028;-83
2023/02/10 10:08:04;;;;;;;6.22;4.97;;;;;;;-0.66;63.19;103666.13;5108994;28;20131;-81
2023/02/10 10:10:32;;;;;;;8.68;7.05;;;;;;;-0.88;63.97;103594.00;5092118;28;20032;-81
2023/02/10 10:12:57;;;;;;;5.93;5.38;;;;;;;-0.49;63.42;103629.63;5084172;28;20085;-81
2023/02/10 10:15:23;;;;;;;5.03;3.83;;;;;;;-0.47;62.63;103639.88;5069206;28;20036;-81
2023/02/10 10:18:10;;;;;;;4.90;4.43;;;;;;;-0.39;63.57;103653.81;5091029;28;20035;-87
2023/02/10 10:20:44;;;;;;;5.10;4.40;;;;;;;-0.31;62.54;103658.41;5083120;28;20025;-78
2023/02/10 10:23:19;;;;;;;8.68;5.30;;;;;;;-0.49;63.41;103608.38;5095017;28;20036;-85
2023/02/10 10:25:45;;;;;;;4.07;3.65;;;;;;;-0.22;63.77;103654.53;5073403;28;20051;-82
2023/02/10 10:28:36;;;;;;;6.18;4.38;;;;;;;-0.14;64.28;103646.44;5108201;28;20044;-84
2023/02/10 10:31:14;;;;;;;4.57;3.78;;;;;;;-0.15;63.13;103644.69;5092946;28;20487;-84
2023/02/10 10:33:53;;;;;;;5.80;3.58;;;;;;;-0.17;62.86;103625.09;5086415;28;20409;-79
2023/02/10 10:36:35;;;;;;;6.90;5.13;;;;;;;-0.06;63.71;103624.72;5070112;28;20078;-84
2023/02/10 10:39:11;;;;;;;4.88;4.18;;;;;;;0.04;62.49;103632.75;5070854;28;20016;-82
2023/02/10 10:41:37;;;;;;;4.70;3.95;;;;;;;0.11;63.77;103632.22;5069122;28;20087;-80
2023/02/10 10:44:02;;;;;;;11.30;6.88;;;;;;;0.10;63.03;103631.34;5072419;28;20514;-81
2023/02/10 10:46:33;;;;;;;9.60;6.13;;;;;;;0.16;62.81;103618.88;5077440;28;20078;-85
2023/02/10 10:48:58;;;;;;;6.82;5.15;;;;;;;0.05;62.54;103579.38;5086440;28;20035;-85
2023/02/10 10:51:24;;;;;;;7.70;5.03;;;;;;;0.06;63.30;103578.56;5070152;28;20028;-93
2023/02/10 10:53:51;;;;;;;8.18;5.65;;;;;;;0.24;62.71;103624.28;5055059;28;20415;-83
2023/02/10 10:56:44;;;;;;;4.22;3.80;;;;;;;0.15;62.68;103604.41;5084374;28;20029;-91
2023/02/10 10:59:16;;;;;;;12.95;7.82;;;;;;;0.14;63.18;103607.75;5088346;28;20036;-87
2023/02/10 11:01:43;;;;;;;13.00;6.53;;;;;;;-0.01;63.80;103607.97;5075503;28;20074;-80
2023/02/10 11:04:33;;;;;;;8.90;6.95;;;;;;;-0.02;64.03;103590.09;5070675;28;20020;-87
2023/02/10 11:06:59;;;;;;;5.88;5.15;;;;;;;0.03;62.96;103603.03;5089272;28;20024;-89
2023/02/10 11:09:40;;;;;;;5.85;4.90;;;;;;;-0.16;63.71;103581.00;5067649;28;20530;-85
2023/02/10 11:12:29;;;;;;;11.23;7.68;;;;;;;0.06;64.39;103596.38;5071536;28;20536;-81
2023/02/10 11:14:56;;;;;;;8.60;7.43;;;;;;;-0.26;63.43;103530.53;5081082;28;20407;-83
2023/02/10 11:17:30;;;;;;;4.65;4.20;;;;;;;0.19;63.84;103590.09;5069185;28;20036;-82
2023/02/10 11:20:01;;;;;;;6.93;6.13;;;;;;;0.01;63.85;103569.00;5075815;28;20059;-83
2023/02/10 11:22:26;;;;;;;8.63;6.85;;;;;;;0.05;63.97;103575.94;5085177;28;20017;-86
2023/02/10 11:24:54;;;;;;;8.18;7.25;;;;;;;-0.06;63.45;103567.88;5050194;28;20135;-86
2023/02/10 11:27:19;;;;;;;17.88;9.82;;;;;;;0.10;63.90;103570.25;5065249;28;20448;-84
2023/02/10 11:29:55;;;;;;;12.13;7.82;;;;;;;0.25;63.36;103558.13;5068393;28;20032;-82